sensor_id;sensor_type;location;lat;lon;timestamp;temperature;humidity
19088;DHT22;9676;50.916;13.352;2024-01-11T00:01:57;-2.60;51.10
19088;DHT22;9676;50.916;13.352;2024-01-11T00:04:48;-2.70;51.10
19088;DHT22;9676;50.916;13.352;2024-01-11T00:07:38;-2.70;51.20
19088;DHT22;9676;50.916;13.352;2024-01-11T00:10:27;-2.70;51.20
19088;DHT22;9676;50.916;13.352;2024-01-11T00:13:16;-2.80;51.10
19088;DHT22;9676;50.916;13.352;2024-01-11T00:16:07;-2.80;51.20
19088;DHT22;9676;50.916;13.352;2024-01-11T00:18:56;-2.70;51.20
19088;DHT22;9676;50.916;13.352;2024-01-11T00:21:46;-2.80;51.30
19088;DHT22;9676;50.916;13.352;2024-01-11T00:24:36;-2.80;51.30
19088;DHT22;9676;50.916;13.352;2024-01-11T00:27:26;-2.80;51.40
19088;DHT22;9676;50.916;13.352;2024-01-11T00:30:16;-2.70;51.70
19088;DHT22;9676;50.916;13.352;2024-01-11T00:33:07;-2.80;51.60
19088;DHT22;9676;50.916;13.352;2024-01-11T00:35:57;-2.80;51.70
19088;DHT22;9676;50.916;13.352;2024-01-11T00:38:47;-2.80;51.60
19088;DHT22;9676;50.916;13.352;2024-01-11T00:41:36;-2.80;51.60
19088;DHT22;9676;50.916;13.352;2024-01-11T00:44:26;-2.80;51.60
19088;DHT22;9676;50.916;13.352;2024-01-11T00:47:15;-2.80;51.40
19088;DHT22;9676;50.916;13.352;2024-01-11T00:50:07;-2.80;51.40
19088;DHT22;9676;50.916;13.352;2024-01-11T00:52:57;-2.80;51.50
19088;DHT22;9676;50.916;13.352;2024-01-11T00:55:47;-2.80;51.60
19088;DHT22;9676;50.916;13.352;2024-01-11T00:58:36;-2.90;51.60
19088;DHT22;9676;50.916;13.352;2024-01-11T01:01:25;-2.90;51.60
19088;DHT22;9676;50.916;13.352;2024-01-11T01:04:15;-2.90;51.80
19088;DHT22;9676;50.916;13.352;2024-01-11T01:07:06;-2.90;51.80
19088;DHT22;9676;50.916;13.352;2024-01-11T01:09:55;-2.90;51.70
19088;DHT22;9676;50.916;13.352;2024-01-11T01:12:45;-2.90;51.60
19088;DHT22;9676;50.916;13.352;2024-01-11T01:15:34;-2.90;51.50
19088;DHT22;9676;50.916;13.352;2024-01-11T01:18:23;-2.90;51.50
19088;DHT22;9676;50.916;13.352;2024-01-11T01:21:13;-2.90;51.50
19088;DHT22;9676;50.916;13.352;2024-01-11T01:24:04;-2.90;51.60
19088;DHT22;9676;50.916;13.352;2024-01-11T01:26:53;-3.00;51.60
19088;DHT22;9676;50.916;13.352;2024-01-11T01:29:43;-3.00;51.80
19088;DHT22;9676;50.916;13.352;2024-01-11T01:32:32;-3.00;51.80
19088;DHT22;9676;50.916;13.352;2024-01-11T01:35:22;-3.00;51.80
19088;DHT22;9676;50.916;13.352;2024-01-11T01:38:12;-3.00;52.00
19088;DHT22;9676;50.916;13.352;2024-01-11T01:41:03;-3.00;52.00
19088;DHT22;9676;50.916;13.352;2024-01-11T01:43:53;-3.00;52.10
19088;DHT22;9676;50.916;13.352;2024-01-11T01:46:42;-3.00;52.10
19088;DHT22;9676;50.916;13.352;2024-01-11T01:49:32;-3.00;52.10
19088;DHT22;9676;50.916;13.352;2024-01-11T01:52:22;-2.90;52.20
19088;DHT22;9676;50.916;13.352;2024-01-11T01:55:12;-2.90;52.10
19088;DHT22;9676;50.916;13.352;2024-01-11T01:58:05;-3.00;52.00
19088;DHT22;9676;50.916;13.352;2024-01-11T02:00:54;-3.00;51.90
19088;DHT22;9676;50.916;13.352;2024-01-11T02:03:46;-3.00;52.00
19088;DHT22;9676;50.916;13.352;2024-01-11T02:06:36;-3.00;52.00
19088;DHT22;9676;50.916;13.352;2024-01-11T02:09:26;-3.00;52.00
19088;DHT22;9676;50.916;13.352;2024-01-11T02:12:17;-3.00;52.00
19088;DHT22;9676;50.916;13.352;2024-01-11T02:15:08;-3.10;51.80
19088;DHT22;9676;50.916;13.352;2024-01-11T02:17:58;-3.10;51.90
19088;DHT22;9676;50.916;13.352;2024-01-11T02:20:47;-3.10;52.00
19088;DHT22;9676;50.916;13.352;2024-01-11T02:23:40;-3.10;52.00
19088;DHT22;9676;50.916;13.352;2024-01-11T02:26:34;-3.20;52.10
19088;DHT22;9676;50.916;13.352;2024-01-11T02:29:24;-3.10;52.20
19088;DHT22;9676;50.916;13.352;2024-01-11T02:32:14;-3.20;52.10
19088;DHT22;9676;50.916;13.352;2024-01-11T02:35:04;-3.20;52.10
19088;DHT22;9676;50.916;13.352;2024-01-11T02:37:54;-3.20;52.20
19088;DHT22;9676;50.916;13.352;2024-01-11T02:40:44;-3.20;52.20
19088;DHT22;9676;50.916;13.352;2024-01-11T02:43:35;-3.10;52.20
19088;DHT22;9676;50.916;13.352;2024-01-11T02:46:24;-3.30;52.10
19088;DHT22;9676;50.916;13.352;2024-01-11T02:49:14;-3.30;52.10
19088;DHT22;9676;50.916;13.352;2024-01-11T02:52:04;-3.30;52.10
19088;DHT22;9676;50.916;13.352;2024-01-11T02:54:54;-3.30;52.10
19088;DHT22;9676;50.916;13.352;2024-01-11T02:57:43;-3.40;52.10
19088;DHT22;9676;50.916;13.352;2024-01-11T03:00:34;-3.40;52.10
19088;DHT22;9676;50.916;13.352;2024-01-11T03:03:24;-3.40;52.20
19088;DHT22;9676;50.916;13.352;2024-01-11T03:06:13;-3.40;52.20
19088;DHT22;9676;50.916;13.352;2024-01-11T03:09:05;-3.40;52.30
19088;DHT22;9676;50.916;13.352;2024-01-11T03:11:54;-3.40;52.20
19088;DHT22;9676;50.916;13.352;2024-01-11T03:14:44;-3.50;52.20
19088;DHT22;9676;50.916;13.352;2024-01-11T03:17:35;-3.50;52.20
19088;DHT22;9676;50.916;13.352;2024-01-11T03:20:24;-3.50;52.20
19088;DHT22;9676;50.916;13.352;2024-01-11T03:23:14;-3.50;52.30
19088;DHT22;9676;50.916;13.352;2024-01-11T03:26:03;-3.50;52.40
19088;DHT22;9676;50.916;13.352;2024-01-11T03:28:53;-3.50;52.40
19088;DHT22;9676;50.916;13.352;2024-01-11T03:31:42;-3.50;52.40
19088;DHT22;9676;50.916;13.352;2024-01-11T03:34:34;-3.50;52.20
19088;DHT22;9676;50.916;13.352;2024-01-11T03:37:24;-3.50;52.10
19088;DHT22;9676;50.916;13.352;2024-01-11T03:40:13;-3.60;52.00
19088;DHT22;9676;50.916;13.352;2024-01-11T03:43:03;-3.60;52.70
19088;DHT22;9676;50.916;13.352;2024-01-11T03:45:52;-3.60;52.40
19088;DHT22;9676;50.916;13.352;2024-01-11T03:48:42;-3.70;52.40
19088;DHT22;9676;50.916;13.352;2024-01-11T03:51:33;-3.70;52.50
19088;DHT22;9676;50.916;13.352;2024-01-11T03:54:22;-3.70;52.60
19088;DHT22;9676;50.916;13.352;2024-01-11T03:57:11;-3.70;52.70
19088;DHT22;9676;50.916;13.352;2024-01-11T04:00:01;-3.60;52.90
19088;DHT22;9676;50.916;13.352;2024-01-11T04:02:52;-3.60;52.90
19088;DHT22;9676;50.916;13.352;2024-01-11T04:05:41;-3.60;53.20
19088;DHT22;9676;50.916;13.352;2024-01-11T04:08:32;-3.60;53.20
19088;DHT22;9676;50.916;13.352;2024-01-11T04:11:22;-3.60;53.30
19088;DHT22;9676;50.916;13.352;2024-01-11T04:14:11;-3.50;53.50
19088;DHT22;9676;50.916;13.352;2024-01-11T04:17:01;-3.50;53.50
19088;DHT22;9676;50.916;13.352;2024-01-11T04:19:51;-3.50;53.50
19088;DHT22;9676;50.916;13.352;2024-01-11T04:22:40;-3.50;53.70
19088;DHT22;9676;50.916;13.352;2024-01-11T04:25:31;-3.50;53.80
19088;DHT22;9676;50.916;13.352;2024-01-11T04:28:20;-3.50;53.80
19088;DHT22;9676;50.916;13.352;2024-01-11T04:31:10;-3.50;54.00
19088;DHT22;9676;50.916;13.352;2024-01-11T04:33:59;-3.40;54.20
19088;DHT22;9676;50.916;13.352;2024-01-11T04:36:48;-3.30;54.30
19088;DHT22;9676;50.916;13.352;2024-01-11T04:39:38;-3.40;54.30
19088;DHT22;9676;50.916;13.352;2024-01-11T04:42:28;-3.30;54.40
19088;DHT22;9676;50.916;13.352;2024-01-11T04:45:18;-3.30;54.50
19088;DHT22;9676;50.916;13.352;2024-01-11T04:48:07;-3.30;54.60
19088;DHT22;9676;50.916;13.352;2024-01-11T04:50:57;-3.20;55.40
19088;DHT22;9676;50.916;13.352;2024-01-11T04:53:46;-3.10;55.00
19088;DHT22;9676;50.916;13.352;2024-01-11T04:56:36;-3.10;55.10
19088;DHT22;9676;50.916;13.352;2024-01-11T04:59:27;-3.10;55.10
19088;DHT22;9676;50.916;13.352;2024-01-11T05:02:16;-3.10;55.10
19088;DHT22;9676;50.916;13.352;2024-01-11T05:05:06;-3.10;55.30
19088;DHT22;9676;50.916;13.352;2024-01-11T05:07:56;-3.10;55.30
19088;DHT22;9676;50.916;13.352;2024-01-11T05:10:46;-3.10;55.30
19088;DHT22;9676;50.916;13.352;2024-01-11T05:13:35;-3.10;55.20
19088;DHT22;9676;50.916;13.352;2024-01-11T05:16:27;-3.10;55.10
19088;DHT22;9676;50.916;13.352;2024-01-11T05:19:17;-3.10;55.10
19088;DHT22;9676;50.916;13.352;2024-01-11T05:22:06;-3.10;55.00
19088;DHT22;9676;50.916;13.352;2024-01-11T05:24:55;-3.10;54.90
19088;DHT22;9676;50.916;13.352;2024-01-11T05:27:45;-3.10;54.90
19088;DHT22;9676;50.916;13.352;2024-01-11T05:30:34;-3.10;55.00
19088;DHT22;9676;50.916;13.352;2024-01-11T05:33:25;-3.20;54.90
19088;DHT22;9676;50.916;13.352;2024-01-11T05:36:15;-3.20;55.00
19088;DHT22;9676;50.916;13.352;2024-01-11T05:39:04;-3.20;55.00
19088;DHT22;9676;50.916;13.352;2024-01-11T05:41:54;-3.30;55.00
19088;DHT22;9676;50.916;13.352;2024-01-11T05:44:43;-3.20;55.10
19088;DHT22;9676;50.916;13.352;2024-01-11T05:47:32;-3.20;55.00
19088;DHT22;9676;50.916;13.352;2024-01-11T05:50:23;-3.30;55.00
19088;DHT22;9676;50.916;13.352;2024-01-11T05:53:13;-3.30;55.10
19088;DHT22;9676;50.916;13.352;2024-01-11T05:56:07;-3.30;55.10
19088;DHT22;9676;50.916;13.352;2024-01-11T05:58:57;-3.30;55.10
19088;DHT22;9676;50.916;13.352;2024-01-11T06:01:47;-3.30;55.20
19088;DHT22;9676;50.916;13.352;2024-01-11T06:04:37;-3.30;55.20
19088;DHT22;9676;50.916;13.352;2024-01-11T06:07:27;-3.40;55.20
19088;DHT22;9676;50.916;13.352;2024-01-11T06:10:17;-3.40;55.40
19088;DHT22;9676;50.916;13.352;2024-01-11T06:13:06;-3.30;55.60
19088;DHT22;9676;50.916;13.352;2024-01-11T06:15:57;-3.40;55.50
19088;DHT22;9676;50.916;13.352;2024-01-11T06:18:46;-3.40;55.50
19088;DHT22;9676;50.916;13.352;2024-01-11T06:21:36;-3.40;55.50
19088;DHT22;9676;50.916;13.352;2024-01-11T06:24:27;-3.40;55.50
19088;DHT22;9676;50.916;13.352;2024-01-11T06:27:16;-3.50;55.40
19088;DHT22;9676;50.916;13.352;2024-01-11T06:30:07;-3.50;55.50
19088;DHT22;9676;50.916;13.352;2024-01-11T06:32:57;-3.50;56.20
19088;DHT22;9676;50.916;13.352;2024-01-11T06:35:46;-3.50;55.60
19088;DHT22;9676;50.916;13.352;2024-01-11T06:38:36;-3.50;55.70
19088;DHT22;9676;50.916;13.352;2024-01-11T06:41:26;-3.50;55.70
19088;DHT22;9676;50.916;13.352;2024-01-11T06:44:16;-3.50;55.80
19088;DHT22;9676;50.916;13.352;2024-01-11T06:47:05;-3.50;55.80
19088;DHT22;9676;50.916;13.352;2024-01-11T06:49:55;-3.50;55.80
19088;DHT22;9676;50.916;13.352;2024-01-11T06:52:44;-3.60;55.90
19088;DHT22;9676;50.916;13.352;2024-01-11T06:55:34;-3.50;56.00
19088;DHT22;9676;50.916;13.352;2024-01-11T06:58:25;-3.50;56.10
19088;DHT22;9676;50.916;13.352;2024-01-11T07:01:14;-3.50;56.20
19088;DHT22;9676;50.916;13.352;2024-01-11T07:04:04;-3.50;56.30
19088;DHT22;9676;50.916;13.352;2024-01-11T07:06:53;-3.40;56.60
19088;DHT22;9676;50.916;13.352;2024-01-11T07:09:43;-3.50;56.70
19088;DHT22;9676;50.916;13.352;2024-01-11T07:12:32;-3.40;56.90
19088;DHT22;9676;50.916;13.352;2024-01-11T07:15:23;-3.40;57.00
19088;DHT22;9676;50.916;13.352;2024-01-11T07:18:13;-3.30;57.30
19088;DHT22;9676;50.916;13.352;2024-01-11T07:21:03;-3.30;57.40
19088;DHT22;9676;50.916;13.352;2024-01-11T07:23:52;-3.20;57.40
19088;DHT22;9676;50.916;13.352;2024-01-11T07:26:42;-3.20;57.50
19088;DHT22;9676;50.916;13.352;2024-01-11T07:29:32;-3.10;58.40
19088;DHT22;9676;50.916;13.352;2024-01-11T07:32:23;-3.10;58.10
19088;DHT22;9676;50.916;13.352;2024-01-11T07:35:14;-3.00;58.40
19088;DHT22;9676;50.916;13.352;2024-01-11T07:38:06;-2.90;58.80
19088;DHT22;9676;50.916;13.352;2024-01-11T07:40:55;-2.80;59.20
19088;DHT22;9676;50.916;13.352;2024-01-11T07:43:45;-2.70;59.70
19088;DHT22;9676;50.916;13.352;2024-01-11T07:46:42;-2.50;60.90
19088;DHT22;9676;50.916;13.352;2024-01-11T07:49:42;-2.30;63.20
19088;DHT22;9676;50.916;13.352;2024-01-11T07:52:32;-2.10;66.30
19088;DHT22;9676;50.916;13.352;2024-01-11T07:55:21;-1.70;67.80
19088;DHT22;9676;50.916;13.352;2024-01-11T07:58:12;-1.40;68.20
19088;DHT22;9676;50.916;13.352;2024-01-11T08:01:01;-1.10;67.70
19088;DHT22;9676;50.916;13.352;2024-01-11T08:03:51;-0.80;67.00
19088;DHT22;9676;50.916;13.352;2024-01-11T08:06:42;-0.60;65.90
19088;DHT22;9676;50.916;13.352;2024-01-11T08:09:32;-0.50;64.70
19088;DHT22;9676;50.916;13.352;2024-01-11T08:12:21;-0.30;63.70
19088;DHT22;9676;50.916;13.352;2024-01-11T08:15:11;-0.20;62.80
19088;DHT22;9676;50.916;13.352;2024-01-11T08:18:01;-0.20;62.10
19088;DHT22;9676;50.916;13.352;2024-01-11T08:20:50;-0.20;61.60
19088;DHT22;9676;50.916;13.352;2024-01-11T08:23:41;-0.20;61.30
19088;DHT22;9676;50.916;13.352;2024-01-11T08:26:34;-0.20;61.20
19088;DHT22;9676;50.916;13.352;2024-01-11T08:29:23;-0.20;61.20
19088;DHT22;9676;50.916;13.352;2024-01-11T08:32:13;-0.20;62.20
19088;DHT22;9676;50.916;13.352;2024-01-11T08:35:17;-0.20;64.70
19088;DHT22;9676;50.916;13.352;2024-01-11T08:38:07;0.00;66.60
19088;DHT22;9676;50.916;13.352;2024-01-11T08:40:58;0.20;69.40
19088;DHT22;9676;50.916;13.352;2024-01-11T08:43:48;0.50;74.20
19088;DHT22;9676;50.916;13.352;2024-01-11T08:46:37;0.90;79.70
19088;DHT22;9676;50.916;13.352;2024-01-11T08:49:27;1.40;83.50
19088;DHT22;9676;50.916;13.352;2024-01-11T08:52:16;2.10;88.80
19088;DHT22;9676;50.916;13.352;2024-01-11T08:55:06;2.60;91.90
19088;DHT22;9676;50.916;13.352;2024-01-11T08:57:57;3.30;93.90
19088;DHT22;9676;50.916;13.352;2024-01-11T09:00:47;4.20;95.10
19088;DHT22;9676;50.916;13.352;2024-01-11T09:03:36;5.00;96.60
19088;DHT22;9676;50.916;13.352;2024-01-11T09:06:26;5.80;97.60
19088;DHT22;9676;50.916;13.352;2024-01-11T09:09:15;6.60;97.90
19088;DHT22;9676;50.916;13.352;2024-01-11T09:12:05;7.50;97.80
19088;DHT22;9676;50.916;13.352;2024-01-11T09:14:56;8.20;96.80
19088;DHT22;9676;50.916;13.352;2024-01-11T09:17:45;9.00;94.20
19088;DHT22;9676;50.916;13.352;2024-01-11T09:20:35;9.60;92.20
19088;DHT22;9676;50.916;13.352;2024-01-11T09:23:25;10.10;86.40
19088;DHT22;9676;50.916;13.352;2024-01-11T09:26:14;10.40;80.50
19088;DHT22;9676;50.916;13.352;2024-01-11T09:29:04;10.60;75.50
19088;DHT22;9676;50.916;13.352;2024-01-11T09:31:55;10.70;73.00
19088;DHT22;9676;50.916;13.352;2024-01-11T09:34:44;10.70;71.40
19088;DHT22;9676;50.916;13.352;2024-01-11T09:37:33;10.70;71.40
19088;DHT22;9676;50.916;13.352;2024-01-11T09:40:23;10.70;71.50
19088;DHT22;9676;50.916;13.352;2024-01-11T09:43:13;10.70;71.40
19088;DHT22;9676;50.916;13.352;2024-01-11T09:46:04;10.90;72.90
19088;DHT22;9676;50.916;13.352;2024-01-11T09:48:57;11.00;72.60
19088;DHT22;9676;50.916;13.352;2024-01-11T09:51:47;11.20;70.00
19088;DHT22;9676;50.916;13.352;2024-01-11T09:54:38;11.20;68.00
19088;DHT22;9676;50.916;13.352;2024-01-11T09:57:31;11.20;66.70
19088;DHT22;9676;50.916;13.352;2024-01-11T10:00:22;11.20;65.90
19088;DHT22;9676;50.916;13.352;2024-01-11T10:03:12;11.10;67.50
19088;DHT22;9676;50.916;13.352;2024-01-11T10:06:04;11.20;68.90
19088;DHT22;9676;50.916;13.352;2024-01-11T10:08:55;11.30;69.10
19088;DHT22;9676;50.916;13.352;2024-01-11T10:11:44;11.50;69.70
19088;DHT22;9676;50.916;13.352;2024-01-11T10:14:33;11.60;70.50
19088;DHT22;9676;50.916;13.352;2024-01-11T10:17:23;11.80;70.40
19088;DHT22;9676;50.916;13.352;2024-01-11T10:20:13;12.00;69.80
19088;DHT22;9676;50.916;13.352;2024-01-11T10:23:05;12.10;69.90
19088;DHT22;9676;50.916;13.352;2024-01-11T10:25:56;12.20;66.90
19088;DHT22;9676;50.916;13.352;2024-01-11T10:28:46;12.30;66.10
19088;DHT22;9676;50.916;13.352;2024-01-11T10:31:36;12.30;67.60
19088;DHT22;9676;50.916;13.352;2024-01-11T10:34:25;12.50;69.20
19088;DHT22;9676;50.916;13.352;2024-01-11T10:37:15;12.60;67.80
19088;DHT22;9676;50.916;13.352;2024-01-11T10:40:08;12.70;65.20
19088;DHT22;9676;50.916;13.352;2024-01-11T10:43:03;12.60;62.60
19088;DHT22;9676;50.916;13.352;2024-01-11T10:45:59;12.40;61.00
19088;DHT22;9676;50.916;13.352;2024-01-11T10:48:56;12.20;60.00
19088;DHT22;9676;50.916;13.352;2024-01-11T10:51:49;11.90;59.20
19088;DHT22;9676;50.916;13.352;2024-01-11T10:54:42;11.60;58.90
19088;DHT22;9676;50.916;13.352;2024-01-11T10:57:33;11.40;58.80
19088;DHT22;9676;50.916;13.352;2024-01-11T11:00:23;11.10;57.80
19088;DHT22;9676;50.916;13.352;2024-01-11T11:03:14;10.80;57.60
19088;DHT22;9676;50.916;13.352;2024-01-11T11:06:05;10.60;57.50
19088;DHT22;9676;50.916;13.352;2024-01-11T11:08:55;10.30;57.80
19088;DHT22;9676;50.916;13.352;2024-01-11T11:11:47;10.00;56.80
19088;DHT22;9676;50.916;13.352;2024-01-11T11:14:38;9.80;57.30
19088;DHT22;9676;50.916;13.352;2024-01-11T11:17:28;9.60;56.90
19088;DHT22;9676;50.916;13.352;2024-01-11T11:20:18;9.30;56.60
19088;DHT22;9676;50.916;13.352;2024-01-11T11:23:09;9.00;56.70
19088;DHT22;9676;50.916;13.352;2024-01-11T11:26:00;8.80;57.40
19088;DHT22;9676;50.916;13.352;2024-01-11T11:28:51;8.70;58.30
19088;DHT22;9676;50.916;13.352;2024-01-11T11:31:44;8.60;58.70
19088;DHT22;9676;50.916;13.352;2024-01-11T11:34:40;8.60;59.20
19088;DHT22;9676;50.916;13.352;2024-01-11T11:37:32;8.60;58.00
19088;DHT22;9676;50.916;13.352;2024-01-11T11:40:22;8.50;57.70
19088;DHT22;9676;50.916;13.352;2024-01-11T11:43:21;8.40;57.70
19088;DHT22;9676;50.916;13.352;2024-01-11T11:46:11;8.30;58.70
19088;DHT22;9676;50.916;13.352;2024-01-11T11:49:01;8.30;60.20
19088;DHT22;9676;50.916;13.352;2024-01-11T11:51:51;8.40;60.90
19088;DHT22;9676;50.916;13.352;2024-01-11T11:54:45;8.60;61.30
19088;DHT22;9676;50.916;13.352;2024-01-11T11:57:35;8.70;60.60
19088;DHT22;9676;50.916;13.352;2024-01-11T12:00:25;8.80;59.60
19088;DHT22;9676;50.916;13.352;2024-01-11T12:03:18;8.80;58.80
19088;DHT22;9676;50.916;13.352;2024-01-11T12:06:09;8.80;58.20
19088;DHT22;9676;50.916;13.352;2024-01-11T12:08:59;8.70;57.50
19088;DHT22;9676;50.916;13.352;2024-01-11T12:11:48;8.50;57.20
19088;DHT22;9676;50.916;13.352;2024-01-11T12:14:53;8.40;57.00
19088;DHT22;9676;50.916;13.352;2024-01-11T12:17:43;8.20;57.10
19088;DHT22;9676;50.916;13.352;2024-01-11T12:20:34;8.10;56.70
19088;DHT22;9676;50.916;13.352;2024-01-11T12:23:25;8.00;56.80
19088;DHT22;9676;50.916;13.352;2024-01-11T12:26:15;7.90;56.80
19088;DHT22;9676;50.916;13.352;2024-01-11T12:29:10;7.80;56.90
19088;DHT22;9676;50.916;13.352;2024-01-11T12:32:00;7.80;56.80
19088;DHT22;9676;50.916;13.352;2024-01-11T12:34:50;7.70;56.70
19088;DHT22;9676;50.916;13.352;2024-01-11T12:37:40;7.70;56.70
19088;DHT22;9676;50.916;13.352;2024-01-11T12:40:32;7.70;56.30
19088;DHT22;9676;50.916;13.352;2024-01-11T12:43:22;7.60;56.30
19088;DHT22;9676;50.916;13.352;2024-01-11T12:46:12;7.60;56.60
19088;DHT22;9676;50.916;13.352;2024-01-11T12:49:01;7.50;56.50
19088;DHT22;9676;50.916;13.352;2024-01-11T12:51:51;7.50;56.50
19088;DHT22;9676;50.916;13.352;2024-01-11T12:54:41;7.50;56.30
19088;DHT22;9676;50.916;13.352;2024-01-11T12:57:31;7.50;56.10
19088;DHT22;9676;50.916;13.352;2024-01-11T13:00:22;7.40;55.80
19088;DHT22;9676;50.916;13.352;2024-01-11T13:03:12;7.30;55.60
19088;DHT22;9676;50.916;13.352;2024-01-11T13:06:02;7.30;55.30
19088;DHT22;9676;50.916;13.352;2024-01-11T13:08:52;7.20;55.00
19088;DHT22;9676;50.916;13.352;2024-01-11T13:11:42;7.10;54.70
19088;DHT22;9676;50.916;13.352;2024-01-11T13:14:33;7.00;54.50
19088;DHT22;9676;50.916;13.352;2024-01-11T13:17:23;6.90;54.30
19088;DHT22;9676;50.916;13.352;2024-01-11T13:20:12;6.90;54.20
19088;DHT22;9676;50.916;13.352;2024-01-11T13:23:12;6.80;54.10
19088;DHT22;9676;50.916;13.352;2024-01-11T13:26:03;6.70;53.40
19088;DHT22;9676;50.916;13.352;2024-01-11T13:28:53;6.60;53.70
19088;DHT22;9676;50.916;13.352;2024-01-11T13:31:44;6.50;53.50
19088;DHT22;9676;50.916;13.352;2024-01-11T13:34:33;6.40;53.20
19088;DHT22;9676;50.916;13.352;2024-01-11T13:37:22;6.30;53.10
19088;DHT22;9676;50.916;13.352;2024-01-11T13:40:12;6.20;52.90
19088;DHT22;9676;50.916;13.352;2024-01-11T13:43:02;6.10;52.70
19088;DHT22;9676;50.916;13.352;2024-01-11T13:45:52;5.90;52.50
19088;DHT22;9676;50.916;13.352;2024-01-11T13:48:43;5.80;52.30
19088;DHT22;9676;50.916;13.352;2024-01-11T13:51:33;5.70;52.30
19088;DHT22;9676;50.916;13.352;2024-01-11T13:54:40;5.50;52.10
19088;DHT22;9676;50.916;13.352;2024-01-11T13:57:29;5.40;52.00
19088;DHT22;9676;50.916;13.352;2024-01-11T14:00:19;5.20;51.90
19088;DHT22;9676;50.916;13.352;2024-01-11T14:03:09;5.10;52.00
19088;DHT22;9676;50.916;13.352;2024-01-11T14:06:00;5.00;52.00
19088;DHT22;9676;50.916;13.352;2024-01-11T14:08:51;4.90;52.30
19088;DHT22;9676;50.916;13.352;2024-01-11T14:11:40;4.80;52.60
19088;DHT22;9676;50.916;13.352;2024-01-11T14:14:29;4.80;53.00
19088;DHT22;9676;50.916;13.352;2024-01-11T14:17:19;4.80;53.10
19088;DHT22;9676;50.916;13.352;2024-01-11T14:20:09;4.80;53.00
19088;DHT22;9676;50.916;13.352;2024-01-11T14:23:04;4.70;52.80
19088;DHT22;9676;50.916;13.352;2024-01-11T14:25:53;4.70;52.50
19088;DHT22;9676;50.916;13.352;2024-01-11T14:28:44;4.70;52.40
19088;DHT22;9676;50.916;13.352;2024-01-11T14:31:33;4.60;52.10
19088;DHT22;9676;50.916;13.352;2024-01-11T14:34:23;4.50;51.80
19088;DHT22;9676;50.916;13.352;2024-01-11T14:37:15;4.40;51.60
19088;DHT22;9676;50.916;13.352;2024-01-11T14:40:08;4.30;51.50
19088;DHT22;9676;50.916;13.352;2024-01-11T14:42:58;4.20;51.30
19088;DHT22;9676;50.916;13.352;2024-01-11T14:45:48;4.10;51.20
19088;DHT22;9676;50.916;13.352;2024-01-11T14:48:40;4.00;51.10
19088;DHT22;9676;50.916;13.352;2024-01-11T14:51:29;3.80;51.00
19088;DHT22;9676;50.916;13.352;2024-01-11T14:54:21;3.70;50.90
19088;DHT22;9676;50.916;13.352;2024-01-11T14:57:12;3.60;50.60
19088;DHT22;9676;50.916;13.352;2024-01-11T15:00:02;3.50;50.70
19088;DHT22;9676;50.916;13.352;2024-01-11T15:02:56;3.40;50.80
19088;DHT22;9676;50.916;13.352;2024-01-11T15:05:45;3.30;50.80
19088;DHT22;9676;50.916;13.352;2024-01-11T15:08:35;3.20;50.60
19088;DHT22;9676;50.916;13.352;2024-01-11T15:11:24;3.10;50.50
19088;DHT22;9676;50.916;13.352;2024-01-11T15:14:16;3.10;50.60
19088;DHT22;9676;50.916;13.352;2024-01-11T15:17:07;3.00;50.60
19088;DHT22;9676;50.916;13.352;2024-01-11T15:19:56;2.90;50.60
19088;DHT22;9676;50.916;13.352;2024-01-11T15:22:45;2.80;50.60
19088;DHT22;9676;50.916;13.352;2024-01-11T15:25:35;2.80;50.50
19088;DHT22;9676;50.916;13.352;2024-01-11T15:28:24;2.70;50.50
19088;DHT22;9676;50.916;13.352;2024-01-11T15:31:15;2.60;50.50
19088;DHT22;9676;50.916;13.352;2024-01-11T15:34:04;2.60;50.50
19088;DHT22;9676;50.916;13.352;2024-01-11T15:36:55;2.50;50.50
19088;DHT22;9676;50.916;13.352;2024-01-11T15:39:45;2.40;50.50
19088;DHT22;9676;50.916;13.352;2024-01-11T15:42:35;2.40;50.60
19088;DHT22;9676;50.916;13.352;2024-01-11T15:45:25;2.30;50.60
19088;DHT22;9676;50.916;13.352;2024-01-11T15:48:16;2.30;50.80
19088;DHT22;9676;50.916;13.352;2024-01-11T15:51:05;2.20;50.80
19088;DHT22;9676;50.916;13.352;2024-01-11T15:53:55;2.20;50.90
19088;DHT22;9676;50.916;13.352;2024-01-11T15:56:44;2.10;51.10
19088;DHT22;9676;50.916;13.352;2024-01-11T15:59:34;2.10;51.20
19088;DHT22;9676;50.916;13.352;2024-01-11T16:02:23;2.00;51.20
19088;DHT22;9676;50.916;13.352;2024-01-11T16:05:14;2.00;51.20
19088;DHT22;9676;50.916;13.352;2024-01-11T16:08:04;2.00;51.30
19088;DHT22;9676;50.916;13.352;2024-01-11T16:10:54;2.00;51.30
19088;DHT22;9676;50.916;13.352;2024-01-11T16:13:44;1.90;51.20
19088;DHT22;9676;50.916;13.352;2024-01-11T16:16:36;1.90;51.20
19088;DHT22;9676;50.916;13.352;2024-01-11T16:19:25;1.80;51.20
19088;DHT22;9676;50.916;13.352;2024-01-11T16:22:17;1.70;51.20
19088;DHT22;9676;50.916;13.352;2024-01-11T16:25:08;1.70;51.30
19088;DHT22;9676;50.916;13.352;2024-01-11T16:27:58;1.60;51.20
19088;DHT22;9676;50.916;13.352;2024-01-11T16:30:48;1.60;51.30
19088;DHT22;9676;50.916;13.352;2024-01-11T16:33:37;1.50;51.30
19088;DHT22;9676;50.916;13.352;2024-01-11T16:36:27;1.50;51.40
19088;DHT22;9676;50.916;13.352;2024-01-11T16:39:18;1.40;51.40
19088;DHT22;9676;50.916;13.352;2024-01-11T16:42:07;1.40;51.40
19088;DHT22;9676;50.916;13.352;2024-01-11T16:44:58;1.30;51.40
19088;DHT22;9676;50.916;13.352;2024-01-11T16:47:47;1.30;51.50
19088;DHT22;9676;50.916;13.352;2024-01-11T16:50:38;1.20;51.50
19088;DHT22;9676;50.916;13.352;2024-01-11T16:53:28;1.20;51.60
19088;DHT22;9676;50.916;13.352;2024-01-11T16:56:19;1.10;51.50
19088;DHT22;9676;50.916;13.352;2024-01-11T16:59:09;1.10;51.60
19088;DHT22;9676;50.916;13.352;2024-01-11T17:01:58;1.00;51.60
19088;DHT22;9676;50.916;13.352;2024-01-11T17:04:48;1.00;51.70
19088;DHT22;9676;50.916;13.352;2024-01-11T17:07:37;1.00;51.80
19088;DHT22;9676;50.916;13.352;2024-01-11T17:10:27;0.90;51.80
19088;DHT22;9676;50.916;13.352;2024-01-11T17:13:18;0.90;51.90
19088;DHT22;9676;50.916;13.352;2024-01-11T17:16:08;0.80;52.00
19088;DHT22;9676;50.916;13.352;2024-01-11T17:18:57;0.80;52.20
19088;DHT22;9676;50.916;13.352;2024-01-11T17:21:47;0.80;52.50
19088;DHT22;9676;50.916;13.352;2024-01-11T17:24:37;0.70;52.60
19088;DHT22;9676;50.916;13.352;2024-01-11T17:27:26;0.80;52.90
19088;DHT22;9676;50.916;13.352;2024-01-11T17:30:17;0.80;53.20
19088;DHT22;9676;50.916;13.352;2024-01-11T17:33:06;0.90;53.40
19088;DHT22;9676;50.916;13.352;2024-01-11T17:35:57;0.90;53.60
19088;DHT22;9676;50.916;13.352;2024-01-11T17:38:47;1.00;53.80
19088;DHT22;9676;50.916;13.352;2024-01-11T17:41:38;1.00;53.80
19088;DHT22;9676;50.916;13.352;2024-01-11T17:44:29;1.10;54.00
19088;DHT22;9676;50.916;13.352;2024-01-11T17:47:19;1.10;54.00
19088;DHT22;9676;50.916;13.352;2024-01-11T17:50:09;1.20;54.20
19088;DHT22;9676;50.916;13.352;2024-01-11T17:52:58;1.30;54.30
19088;DHT22;9676;50.916;13.352;2024-01-11T17:55:48;1.30;54.20
19088;DHT22;9676;50.916;13.352;2024-01-11T17:58:38;1.40;54.40
19088;DHT22;9676;50.916;13.352;2024-01-11T18:01:28;1.40;54.40
19088;DHT22;9676;50.916;13.352;2024-01-11T18:04:19;1.40;54.50